createdAt,value
2023-05-10T00:00:44.420Z,16.58
2023-05-10T00:03:11.063Z,16.71
2023-05-10T00:05:37.653Z,16.74
2023-05-10T00:08:04.325Z,16.39
2023-05-10T00:10:30.841Z,16.42
2023-05-10T00:12:57.430Z,16.41
2023-05-10T00:15:23.907Z,16.25
2023-05-10T00:17:50.443Z,15.94
2023-05-10T00:20:17.797Z,16.69
2023-05-10T00:22:44.757Z,16.56
2023-05-10T00:25:11.669Z,16.56
2023-05-10T00:27:38.496Z,16.43
2023-05-10T00:30:05.626Z,16.21
2023-05-10T00:32:32.431Z,16.42
2023-05-10T00:34:59.063Z,16.49
2023-05-10T00:37:25.905Z,16.85
2023-05-10T00:39:52.452Z,16.47
2023-05-10T00:42:19.260Z,16.21
2023-05-10T00:44:45.823Z,16.77
2023-05-10T00:47:12.665Z,16.62
2023-05-10T00:49:39.175Z,16.11
2023-05-10T00:52:05.665Z,15.99
2023-05-10T00:54:35.083Z,15.93
2023-05-10T00:57:02.286Z,15.32
2023-05-10T00:59:29.707Z,15.73
2023-05-10T01:01:56.329Z,15.63
2023-05-10T01:04:26.594Z,15.71
2023-05-10T01:06:54.731Z,15.75
2023-05-10T01:09:22.389Z,15.63
2023-05-10T01:11:49.813Z,15.64
2023-05-10T01:14:19.859Z,15.65
2023-05-10T01:16:48.472Z,15.61
2023-05-10T01:19:24.162Z,15.41
2023-05-10T01:22:26.957Z,15.49
2023-05-10T01:25:11.711Z,15.71
2023-05-10T01:27:56.573Z,16.00
2023-05-10T01:30:35.580Z,15.93
2023-05-10T01:33:12.616Z,15.48
2023-05-10T01:35:46.531Z,15.91
2023-05-10T01:38:19.585Z,15.66
2023-05-10T01:41:08.020Z,15.93
2023-05-10T01:43:44.521Z,16.33
2023-05-10T01:46:17.666Z,15.70
2023-05-10T01:48:53.665Z,15.89
2023-05-10T01:51:26.432Z,16.12
2023-05-10T01:53:55.403Z,16.26
2023-05-10T01:56:25.276Z,15.85
2023-05-10T01:58:53.234Z,15.97
2023-05-10T02:01:21.736Z,15.79
2023-05-10T02:03:50.612Z,16.22
2023-05-10T02:06:17.814Z,15.93
2023-05-10T02:08:45.031Z,15.84
2023-05-10T02:11:12.246Z,16.50
2023-05-10T02:13:40.497Z,16.82
2023-05-10T02:16:07.593Z,15.97
2023-05-10T02:18:36.001Z,15.91
2023-05-10T02:21:03.222Z,15.95
2023-05-10T02:23:30.844Z,16.40
2023-05-10T02:25:58.001Z,16.40
2023-05-10T02:28:25.146Z,15.98
2023-05-10T02:30:52.398Z,15.71
2023-05-10T02:33:20.296Z,16.22
2023-05-10T02:35:47.700Z,16.20
2023-05-10T02:38:15.712Z,15.92
2023-05-10T02:40:43.528Z,15.79
2023-05-10T02:43:14.568Z,16.44
2023-05-10T02:45:42.471Z,16.09
2023-05-10T02:48:09.123Z,16.10
2023-05-10T02:50:36.826Z,15.99
2023-05-10T02:53:09.727Z,15.83
2023-05-10T02:55:39.141Z,15.64
2023-05-10T02:58:05.879Z,15.54
2023-05-10T03:00:32.530Z,15.75
2023-05-10T03:02:59.209Z,15.75
2023-05-10T03:05:26.099Z,15.79
2023-05-10T03:07:53.556Z,15.94
2023-05-10T03:10:20.426Z,16.49
2023-05-10T03:13:14.369Z,16.13
2023-05-10T03:15:46.914Z,16.17
2023-05-10T03:18:37.923Z,16.30
2023-05-10T03:21:07.179Z,15.95
2023-05-10T03:23:33.699Z,16.35
2023-05-10T03:26:00.742Z,16.33
2023-05-10T03:28:28.246Z,15.95
2023-05-10T03:30:55.184Z,15.96
2023-05-10T03:33:21.805Z,16.42
2023-05-10T03:35:48.967Z,16.26
2023-05-10T03:38:15.548Z,16.04
2023-05-10T03:40:42.061Z,16.39
2023-05-10T03:43:08.757Z,16.22
2023-05-10T03:45:35.656Z,15.59
2023-05-10T03:48:02.473Z,15.99
2023-05-10T03:50:29.208Z,15.75
2023-05-10T03:52:56.109Z,15.96
2023-05-10T03:55:23.444Z,15.33
2023-05-10T03:57:50.661Z,15.71
2023-05-10T04:00:17.999Z,15.75
2023-05-10T04:02:46.009Z,15.85
2023-05-10T04:05:13.611Z,16.16
2023-05-10T04:07:40.346Z,16.06
2023-05-10T04:10:08.016Z,16.15
2023-05-10T04:12:34.819Z,16.00
2023-05-10T04:15:01.319Z,15.96
2023-05-10T04:17:28.079Z,15.58
2023-05-10T04:19:55.686Z,16.07
2023-05-10T04:22:22.569Z,15.17
2023-05-10T04:24:49.109Z,15.53
2023-05-10T04:27:15.934Z,15.91
2023-05-10T04:29:42.589Z,15.32
2023-05-10T04:32:09.173Z,15.59
2023-05-10T04:34:35.627Z,16.28
2023-05-10T04:37:02.264Z,16.02
2023-05-10T04:39:28.738Z,15.28
2023-05-10T04:41:55.181Z,15.85
2023-05-10T04:44:21.736Z,15.84
2023-05-10T04:46:48.361Z,16.25
2023-05-10T04:49:15.436Z,16.23
2023-05-10T04:51:41.989Z,16.09
2023-05-10T04:54:09.059Z,16.18
2023-05-10T04:56:35.625Z,16.28
2023-05-10T04:59:02.339Z,15.79
2023-05-10T05:01:28.906Z,16.11
2023-05-10T05:03:55.648Z,16.35
2023-05-10T05:06:22.295Z,15.77
2023-05-10T05:08:50.441Z,16.69
2023-05-10T05:11:17.758Z,16.85
2023-05-10T05:13:44.579Z,17.12
2023-05-10T05:16:12.183Z,16.43
2023-05-10T05:18:39.194Z,16.72
2023-05-10T05:21:18.073Z,16.52
2023-05-10T05:23:44.942Z,16.39
2023-05-10T05:26:11.689Z,16.15
2023-05-10T05:28:38.577Z,16.76
2023-05-10T05:31:06.589Z,16.53
2023-05-10T05:33:33.192Z,16.20
2023-05-10T05:36:02.350Z,16.30
2023-05-10T05:38:29.063Z,16.63
2023-05-10T05:40:56.196Z,16.07
2023-05-10T05:43:22.649Z,16.45
2023-05-10T05:45:49.249Z,16.38
2023-05-10T05:48:15.770Z,16.63
2023-05-10T05:50:42.258Z,16.81
2023-05-10T05:53:09.784Z,16.66
2023-05-10T05:55:36.588Z,16.54
2023-05-10T05:58:04.118Z,17.05
2023-05-10T06:00:30.926Z,17.08
2023-05-10T06:02:58.066Z,17.08
2023-05-10T06:05:24.863Z,16.76
2023-05-10T06:07:51.411Z,16.85
2023-05-10T06:10:18.351Z,16.37
2023-05-10T06:12:45.057Z,16.19
2023-05-10T06:15:12.069Z,16.46
2023-05-10T06:17:39.799Z,16.68
2023-05-10T06:20:07.445Z,16.69
2023-05-10T06:22:33.912Z,16.58
2023-05-10T06:25:00.377Z,16.79
2023-05-10T06:27:26.982Z,16.08
2023-05-10T06:30:02.079Z,16.52
2023-05-10T06:32:32.260Z,16.53
2023-05-10T06:34:58.788Z,16.04
2023-05-10T06:37:25.216Z,16.54
2023-05-10T06:39:51.669Z,16.90
2023-05-10T06:42:18.539Z,16.85
2023-05-10T06:44:45.019Z,16.25
2023-05-10T06:47:11.639Z,16.51
2023-05-10T06:49:38.475Z,17.09
2023-05-10T06:52:05.128Z,17.49
2023-05-10T06:54:31.639Z,17.52
2023-05-10T06:56:58.797Z,17.45
2023-05-10T06:59:25.432Z,17.06
2023-05-10T07:01:52.124Z,17.71
2023-05-10T07:04:18.661Z,16.97
2023-05-10T07:06:47.199Z,17.70
2023-05-10T07:09:14.439Z,16.97
2023-05-10T07:11:40.954Z,16.95
2023-05-10T07:14:07.649Z,16.71
2023-05-10T07:16:34.257Z,16.80
2023-05-10T07:19:01.069Z,16.21
2023-05-10T07:21:29.578Z,15.99
2023-05-10T07:23:56.400Z,16.04
2023-05-10T07:26:22.920Z,16.28
2023-05-10T07:28:50.016Z,15.94
2023-05-10T07:31:16.563Z,16.08
2023-05-10T07:33:42.985Z,16.54
2023-05-10T07:36:09.624Z,16.82
2023-05-10T07:38:38.388Z,17.69
2023-05-10T07:41:06.391Z,17.84
2023-05-10T07:43:33.052Z,17.07
2023-05-10T07:46:00.691Z,17.17
2023-05-10T07:48:27.288Z,18.22
2023-05-10T07:50:53.732Z,19.14
2023-05-10T07:53:20.461Z,17.99
2023-05-10T07:55:51.883Z,18.20
2023-05-10T07:58:18.979Z,18.48
2023-05-10T08:00:45.403Z,18.42
2023-05-10T08:03:12.300Z,17.65
2023-05-10T08:05:38.909Z,17.75
2023-05-10T08:08:12.274Z,17.83
2023-05-10T08:10:38.977Z,18.43
2023-05-10T08:13:05.450Z,18.14
2023-05-10T08:15:31.990Z,18.36
2023-05-10T08:17:58.599Z,19.16
2023-05-10T08:20:25.261Z,20.09
2023-05-10T08:22:52.113Z,19.44
2023-05-10T08:25:18.903Z,20.33
2023-05-10T08:27:45.758Z,20.27
2023-05-10T08:30:13.069Z,20.13
2023-05-10T08:32:39.630Z,20.84
2023-05-10T08:35:06.493Z,21.59
2023-05-10T08:37:33.909Z,21.07
2023-05-10T08:40:00.708Z,19.15
2023-05-10T08:42:29.977Z,18.95
2023-05-10T08:44:57.840Z,18.74
2023-05-10T08:47:26.354Z,19.66
2023-05-10T08:49:53.511Z,19.86
2023-05-10T08:52:20.770Z,19.33
2023-05-10T08:54:47.511Z,19.42
2023-05-10T08:57:14.389Z,19.42
2023-05-10T08:59:41.029Z,20.60
2023-05-10T09:02:09.591Z,21.91
2023-05-10T09:04:36.104Z,23.43
2023-05-10T09:07:02.801Z,23.59
2023-05-10T09:09:29.961Z,24.30
2023-05-10T09:11:56.592Z,23.54
2023-05-10T09:14:24.942Z,22.05
2023-05-10T09:16:52.025Z,21.33
2023-05-10T09:19:18.621Z,24.97
2023-05-10T09:21:45.102Z,26.29
2023-05-10T09:24:11.604Z,24.64
2023-05-10T09:26:47.574Z,23.89
2023-05-10T09:29:16.654Z,22.11
2023-05-10T09:31:47.565Z,20.82
2023-05-10T09:34:22.137Z,19.46
2023-05-10T09:36:53.638Z,19.26
2023-05-10T09:39:20.460Z,20.18
2023-05-10T09:41:47.924Z,21.20
2023-05-10T09:44:18.796Z,24.27
2023-05-10T09:46:50.530Z,28.31
2023-05-10T09:49:17.024Z,28.53
2023-05-10T09:51:43.951Z,25.28
2023-05-10T09:54:15.728Z,23.56
2023-05-10T09:56:42.615Z,22.98
2023-05-10T09:59:11.446Z,23.11
2023-05-10T10:01:38.640Z,24.42
2023-05-10T10:04:07.504Z,27.32
2023-05-10T10:06:43.231Z,30.95
2023-05-10T10:09:10.506Z,32.44
2023-05-10T10:11:38.586Z,28.05
2023-05-10T10:14:06.010Z,31.35
2023-05-10T10:16:33.291Z,34.66
2023-05-10T10:19:00.035Z,32.00
2023-05-10T10:21:26.676Z,31.71
2023-05-10T10:23:54.061Z,34.22
2023-05-10T10:26:22.016Z,32.74
2023-05-10T10:29:14.886Z,31.21
2023-05-10T10:31:53.342Z,30.13
2023-05-10T10:34:30.144Z,29.57
2023-05-10T10:36:57.962Z,33.40
2023-05-10T10:39:26.314Z,30.41
2023-05-10T10:41:55.024Z,31.18
2023-05-10T10:44:26.138Z,30.09
2023-05-10T10:47:09.172Z,33.36
2023-05-10T10:49:43.903Z,34.35
2023-05-10T10:52:33.825Z,34.23
2023-05-10T10:55:04.887Z,37.89
2023-05-10T10:57:44.793Z,36.52
2023-05-10T11:00:25.968Z,35.93
2023-05-10T11:02:58.845Z,34.51
2023-05-10T11:05:26.798Z,32.95
2023-05-10T11:07:57.953Z,33.19
2023-05-10T11:10:25.836Z,36.35
2023-05-10T11:13:09.297Z,37.39
2023-05-10T11:15:39.659Z,40.68
2023-05-10T11:18:18.790Z,35.99
2023-05-10T11:20:47.679Z,30.38
2023-05-10T11:23:16.779Z,32.86
2023-05-10T11:25:45.053Z,35.10
2023-05-10T11:28:15.383Z,36.53
2023-05-10T11:30:44.289Z,36.06
2023-05-10T11:33:12.857Z,32.08
2023-05-10T11:35:43.139Z,29.35
2023-05-10T11:38:11.820Z,30.43
2023-05-10T11:40:39.178Z,28.90
2023-05-10T11:43:06.589Z,28.41
2023-05-10T11:45:33.854Z,25.18
2023-05-10T11:48:00.535Z,25.24
2023-05-10T11:50:27.688Z,23.20
2023-05-10T11:52:55.547Z,21.66
2023-05-10T11:55:22.301Z,21.63
2023-05-10T11:57:52.946Z,20.43
2023-05-10T12:00:19.855Z,20.18
2023-05-10T12:02:46.809Z,20.80
2023-05-10T12:05:13.662Z,21.55
2023-05-10T12:07:40.113Z,23.57
2023-05-10T12:10:10.584Z,25.81
2023-05-10T12:12:38.875Z,26.32
2023-05-10T12:15:07.422Z,26.48
2023-05-10T12:17:33.989Z,26.83
2023-05-10T12:20:15.761Z,24.98
2023-05-10T12:22:45.584Z,23.91
2023-05-10T12:25:12.607Z,22.47
2023-05-10T12:27:39.237Z,22.11
2023-05-10T12:30:06.622Z,22.16
2023-05-10T12:32:40.443Z,22.34
2023-05-10T12:35:07.577Z,22.62
2023-05-10T12:37:36.877Z,22.45
2023-05-10T12:40:05.934Z,21.78
2023-05-10T12:42:33.117Z,21.27
2023-05-10T12:44:59.677Z,21.76
2023-05-10T12:47:26.363Z,21.85
2023-05-10T12:49:52.801Z,21.98
2023-05-10T12:52:19.396Z,22.25
2023-05-10T12:54:45.944Z,22.62
2023-05-10T12:57:12.399Z,22.96
2023-05-10T12:59:38.903Z,24.08
2023-05-10T13:02:05.712Z,24.64
2023-05-10T13:04:32.258Z,23.74
2023-05-10T13:06:59.906Z,23.10
2023-05-10T13:09:28.016Z,22.49
2023-05-10T13:11:55.185Z,22.53
2023-05-10T13:14:21.794Z,22.29
2023-05-10T13:16:48.737Z,22.36
2023-05-10T13:19:17.955Z,22.16
2023-05-10T13:21:47.854Z,23.52
2023-05-10T13:24:14.760Z,23.28
2023-05-10T13:26:41.787Z,22.24
2023-05-10T13:29:08.672Z,22.60
2023-05-10T13:31:36.179Z,23.28
2023-05-10T13:34:03.346Z,22.47
2023-05-10T13:36:29.984Z,22.36
2023-05-10T13:38:56.442Z,21.52
2023-05-10T13:41:22.976Z,22.05
2023-05-10T13:43:50.259Z,21.43
2023-05-10T13:46:17.809Z,21.71
2023-05-10T13:48:44.361Z,22.65
2023-05-10T13:51:10.793Z,21.51
2023-05-10T13:53:37.487Z,22.86
2023-05-10T13:56:04.369Z,23.33
2023-05-10T13:58:31.177Z,22.96
2023-05-10T14:00:58.011Z,23.82
2023-05-10T14:03:24.539Z,22.80
2023-05-10T14:05:51.244Z,22.20
2023-05-10T14:08:18.595Z,22.39
2023-05-10T14:10:45.068Z,22.58
2023-05-10T14:13:11.675Z,24.04
2023-05-10T14:15:38.112Z,22.87
2023-05-10T14:18:04.781Z,22.27
2023-05-10T14:20:33.068Z,23.21
2023-05-10T14:22:59.564Z,23.18
2023-05-10T14:25:26.371Z,21.98
2023-05-10T14:27:55.496Z,22.93
2023-05-10T14:30:21.984Z,23.99
2023-05-10T14:32:48.515Z,24.40
2023-05-10T14:35:16.928Z,23.33
2023-05-10T14:37:45.800Z,23.55
2023-05-10T14:40:13.305Z,22.65
2023-05-10T14:42:39.784Z,23.46
2023-05-10T14:45:06.664Z,22.24
2023-05-10T14:47:33.410Z,22.86
2023-05-10T14:50:00.059Z,22.65
2023-05-10T14:52:26.954Z,22.39
2023-05-10T14:54:53.602Z,23.23
2023-05-10T14:57:20.199Z,22.64
2023-05-10T14:59:46.827Z,24.02
2023-05-10T15:02:14.517Z,23.89
2023-05-10T15:04:41.360Z,21.90
2023-05-10T15:07:08.294Z,22.54
2023-05-10T15:09:34.805Z,23.33
2023-05-10T15:12:01.574Z,23.41
2023-05-10T15:14:28.092Z,23.37
2023-05-10T15:16:54.645Z,23.84
2023-05-10T15:19:21.510Z,24.05
2023-05-10T15:21:48.308Z,24.24
2023-05-10T15:24:15.486Z,24.83
2023-05-10T15:26:42.112Z,22.91
2023-05-10T15:29:08.737Z,23.69
2023-05-10T15:31:37.871Z,23.53
2023-05-10T15:34:04.477Z,22.57
2023-05-10T15:36:32.862Z,22.35
2023-05-10T15:38:59.356Z,22.39
2023-05-10T15:41:26.198Z,23.02
2023-05-10T15:43:52.685Z,23.63
2023-05-10T15:46:19.164Z,23.21
2023-05-10T15:48:45.695Z,23.51
2023-05-10T15:51:12.364Z,23.33
2023-05-10T15:53:41.023Z,24.02
2023-05-10T15:56:13.993Z,24.08
2023-05-10T15:58:40.910Z,22.84
2023-05-10T16:01:07.784Z,23.52
2023-05-10T16:03:37.301Z,23.74
2023-05-10T16:06:04.493Z,23.99
2023-05-10T16:08:33.201Z,23.61
2023-05-10T16:11:00.721Z,23.55
2023-05-10T16:13:27.346Z,23.16
2023-05-10T16:15:54.036Z,22.96
2023-05-10T16:18:20.699Z,24.00
2023-05-10T16:20:47.286Z,24.13
2023-05-10T16:23:15.045Z,24.30
2023-05-10T16:25:41.991Z,24.31
2023-05-10T16:28:08.508Z,23.25
2023-05-10T16:30:35.065Z,22.99
2023-05-10T16:33:02.376Z,22.82
2023-05-10T16:35:29.922Z,23.40
2023-05-10T16:37:57.215Z,22.93
2023-05-10T16:40:24.015Z,22.59
2023-05-10T16:42:50.498Z,22.85
2023-05-10T16:45:17.364Z,22.27
2023-05-10T16:47:44.114Z,22.87
2023-05-10T16:50:14.837Z,22.44
2023-05-10T16:52:41.594Z,22.47
2023-05-10T16:55:08.534Z,22.98
2023-05-10T16:57:35.265Z,23.05
2023-05-10T17:00:01.778Z,23.26
2023-05-10T17:02:28.439Z,23.37
2023-05-10T17:04:56.128Z,23.08
2023-05-10T17:07:25.466Z,23.16
2023-05-10T17:09:52.757Z,23.28
2023-05-10T17:12:19.324Z,22.81
2023-05-10T17:14:45.877Z,22.90
2023-05-10T17:17:12.422Z,22.78
2023-05-10T17:19:38.950Z,22.75
2023-05-10T17:22:05.482Z,22.18
2023-05-10T17:24:32.993Z,21.70
2023-05-10T17:27:00.562Z,21.14
2023-05-10T17:29:28.050Z,21.19
2023-05-10T17:31:54.647Z,20.86
2023-05-10T17:34:21.619Z,20.49
2023-05-10T17:36:48.089Z,20.12
2023-05-10T17:39:14.688Z,19.99
2023-05-10T17:41:41.197Z,20.15
2023-05-10T17:44:07.686Z,20.19
2023-05-10T17:46:34.280Z,20.28
2023-05-10T17:49:01.060Z,20.20
2023-05-10T17:51:28.886Z,20.26
2023-05-10T17:53:55.762Z,19.93
2023-05-10T17:56:22.371Z,19.98
2023-05-10T17:58:50.404Z,19.89
2023-05-10T18:01:16.899Z,19.73
2023-05-10T18:03:43.714Z,19.19
2023-05-10T18:06:10.354Z,19.27
2023-05-10T18:08:37.089Z,19.65
2023-05-10T18:11:03.566Z,19.82
2023-05-10T18:13:30.140Z,19.89
2023-05-10T18:15:56.596Z,19.90
2023-05-10T18:18:23.480Z,19.94
2023-05-10T18:20:56.348Z,19.76
2023-05-10T18:23:24.401Z,19.97
2023-05-10T18:25:51.786Z,19.85
2023-05-10T18:28:18.801Z,19.74
2023-05-10T18:30:45.463Z,19.38
2023-05-10T18:33:12.151Z,19.34
2023-05-10T18:35:40.142Z,19.48
2023-05-10T18:38:09.642Z,19.30
2023-05-10T18:40:36.695Z,18.98
2023-05-10T18:43:03.778Z,18.40
2023-05-10T18:45:30.299Z,18.36
2023-05-10T18:47:57.132Z,17.52
2023-05-10T18:50:23.706Z,17.06
2023-05-10T18:52:50.563Z,16.78
2023-05-10T18:55:17.317Z,17.28
2023-05-10T18:57:45.100Z,17.44
2023-05-10T19:00:13.574Z,17.95
2023-05-10T19:02:40.446Z,17.43
2023-05-10T19:05:07.938Z,17.58
2023-05-10T19:07:34.390Z,16.79
2023-05-10T19:10:00.926Z,17.16
2023-05-10T19:12:27.391Z,17.31
2023-05-10T19:14:54.037Z,16.79
2023-05-10T19:17:20.624Z,17.46
2023-05-10T19:19:48.520Z,17.24
2023-05-10T19:22:15.624Z,17.37
2023-05-10T19:24:42.314Z,17.48
2023-05-10T19:27:09.032Z,17.70
2023-05-10T19:29:35.631Z,17.91
2023-05-10T19:32:02.154Z,18.12
2023-05-10T19:34:29.112Z,18.04
2023-05-10T19:36:56.165Z,17.55
2023-05-10T19:39:22.661Z,17.97
2023-05-10T19:41:49.572Z,17.48
2023-05-10T19:44:16.422Z,17.99
2023-05-10T19:46:43.220Z,17.75
2023-05-10T19:49:09.757Z,17.19
2023-05-10T19:51:36.449Z,16.99
2023-05-10T19:54:02.988Z,17.27
2023-05-10T19:56:29.915Z,17.76
2023-05-10T19:58:56.426Z,17.34
2023-05-10T20:01:23.066Z,17.46
2023-05-10T20:03:49.593Z,17.60
2023-05-10T20:06:16.404Z,17.80
2023-05-10T20:08:43.252Z,17.53
2023-05-10T20:11:09.839Z,17.25
2023-05-10T20:13:36.565Z,17.45
2023-05-10T20:16:05.049Z,17.53
2023-05-10T20:18:31.690Z,17.61
2023-05-10T20:20:59.550Z,17.60
2023-05-10T20:23:26.449Z,17.67
2023-05-10T20:25:54.739Z,17.16
2023-05-10T20:28:23.002Z,17.69
2023-05-10T20:30:53.287Z,17.42
2023-05-10T20:33:20.996Z,17.29
2023-05-10T20:35:48.109Z,17.06
2023-05-10T20:38:14.654Z,17.53
2023-05-10T20:40:41.606Z,17.28
2023-05-10T20:43:08.101Z,17.53
2023-05-10T20:45:37.545Z,17.61
2023-05-10T20:48:04.758Z,17.46
2023-05-10T20:50:31.290Z,17.53
2023-05-10T20:52:57.894Z,17.93
2023-05-10T20:55:24.589Z,17.62
2023-05-10T20:57:51.454Z,17.52
2023-05-10T21:00:18.406Z,17.42
2023-05-10T21:02:45.963Z,17.72
2023-05-10T21:05:12.937Z,17.69
2023-05-10T21:07:40.579Z,17.78
2023-05-10T21:10:08.192Z,17.79
2023-05-10T21:12:34.768Z,17.78
2023-05-10T21:15:01.381Z,17.77
2023-05-10T21:17:27.970Z,17.63
2023-05-10T21:19:54.609Z,17.40
2023-05-10T21:22:21.496Z,17.14
2023-05-10T21:24:48.496Z,17.43
2023-05-10T21:27:14.986Z,17.59
2023-05-10T21:29:41.555Z,17.21
2023-05-10T21:32:08.099Z,17.64
2023-05-10T21:34:35.026Z,17.93
2023-05-10T21:37:01.528Z,18.14
2023-05-10T21:39:27.997Z,17.93
2023-05-10T21:41:54.608Z,18.18
2023-05-10T21:44:21.177Z,18.34
2023-05-10T21:46:47.753Z,18.30
2023-05-10T21:49:14.384Z,18.14
2023-05-10T21:51:41.316Z,18.40
2023-05-10T21:54:07.728Z,18.38
2023-05-10T21:56:34.205Z,18.21
2023-05-10T21:59:00.875Z,18.22
2023-05-10T22:01:27.770Z,18.13
2023-05-10T22:03:54.349Z,18.08
2023-05-10T22:06:20.914Z,18.39
2023-05-10T22:08:47.457Z,18.11
2023-05-10T22:11:15.278Z,18.26
2023-05-10T22:13:41.775Z,18.46
2023-05-10T22:16:08.321Z,18.19
2023-05-10T22:18:35.155Z,17.68
2023-05-10T22:21:01.964Z,17.67
2023-05-10T22:23:28.430Z,17.82
2023-05-10T22:25:59.919Z,17.81
2023-05-10T22:28:26.852Z,17.93
2023-05-10T22:30:53.721Z,17.99
2023-05-10T22:33:20.197Z,18.17
2023-05-10T22:35:46.804Z,17.89
2023-05-10T22:38:13.597Z,17.72
2023-05-10T22:40:40.271Z,17.94
2023-05-10T22:43:06.890Z,17.60
2023-05-10T22:45:33.664Z,17.81
2023-05-10T22:48:00.234Z,17.75
2023-05-10T22:50:26.807Z,17.65
2023-05-10T22:52:53.352Z,17.95
2023-05-10T22:55:20.533Z,18.01
2023-05-10T22:57:47.008Z,17.95
2023-05-10T23:00:14.112Z,17.96
2023-05-10T23:02:40.981Z,17.68
2023-05-10T23:05:08.188Z,17.75
2023-05-10T23:07:34.690Z,17.30
2023-05-10T23:10:01.228Z,17.71
2023-05-10T23:12:28.237Z,17.73
2023-05-10T23:14:54.807Z,17.87
2023-05-10T23:17:21.273Z,17.92
2023-05-10T23:19:47.915Z,17.92
2023-05-10T23:22:14.645Z,17.73
2023-05-10T23:24:41.146Z,17.02
2023-05-10T23:27:07.740Z,17.43
2023-05-10T23:29:34.754Z,17.56
2023-05-10T23:32:01.361Z,17.98
2023-05-10T23:34:27.957Z,18.24
2023-05-10T23:36:54.492Z,17.81
2023-05-10T23:39:22.048Z,18.09
2023-05-10T23:41:48.661Z,18.28
2023-05-10T23:44:15.535Z,17.58
2023-05-10T23:46:42.025Z,17.80
2023-05-10T23:49:08.927Z,17.93
2023-05-10T23:51:35.612Z,18.14
2023-05-10T23:54:02.278Z,18.08
2023-05-10T23:56:28.776Z,18.17
2023-05-10T23:58:55.951Z,17.83
